createdAt,value
2023-02-25T00:02:03.866Z,3.25
2023-02-25T00:08:07.256Z,3.17
2023-02-25T00:14:10.656Z,2.60
2023-02-25T00:20:14.100Z,3.92
2023-02-25T00:26:18.295Z,2.60
2023-02-25T00:32:21.207Z,3.28
2023-02-25T00:38:23.505Z,2.60
2023-02-25T00:44:26.243Z,2.70
2023-02-25T00:50:31.140Z,2.60
2023-02-25T00:56:33.886Z,2.42
2023-02-25T01:02:36.432Z,2.22
2023-02-25T01:08:39.532Z,2.70
2023-02-25T01:14:41.919Z,2.15
2023-02-25T01:20:44.451Z,2.63
2023-02-25T01:26:48.440Z,3.22
2023-02-25T01:32:50.411Z,2.43
2023-02-25T01:38:52.925Z,2.85
2023-02-25T01:45:18.310Z,2.17
2023-02-25T01:51:20.435Z,2.65
2023-02-25T01:57:23.682Z,2.75
2023-02-25T02:03:28.079Z,2.33
2023-02-25T02:09:32.116Z,2.38
2023-02-25T02:15:38.966Z,2.33
2023-02-25T02:21:49.648Z,2.50
2023-02-25T02:28:13.827Z,2.20
2023-02-25T02:34:41.708Z,3.00
2023-02-25T02:41:28.091Z,2.13
2023-02-25T02:47:40.699Z,2.00
2023-02-25T02:53:48.231Z,2.58
2023-02-25T03:00:01.842Z,2.55
2023-02-25T03:06:09.289Z,2.28
2023-02-25T03:12:11.278Z,2.05
2023-02-25T03:18:39.103Z,2.13
2023-02-25T03:24:59.424Z,1.90
2023-02-25T03:31:18.167Z,1.83
2023-02-25T03:37:24.284Z,2.08
2023-02-25T03:43:31.133Z,1.80
2023-02-25T03:49:48.222Z,1.55
2023-02-25T03:55:50.419Z,1.40
2023-02-25T04:01:56.369Z,1.63
2023-02-25T04:07:59.714Z,1.50
2023-02-25T04:14:01.606Z,2.30
2023-02-25T04:20:05.295Z,2.10
2023-02-25T04:26:07.215Z,2.00
2023-02-25T04:32:09.681Z,1.45
2023-02-25T04:38:12.607Z,1.88
2023-02-25T04:44:14.577Z,2.15
2023-02-25T04:50:17.385Z,0.80
2023-02-25T04:56:20.226Z,0.80
2023-02-25T05:02:23.048Z,1.08
2023-02-25T05:08:25.339Z,1.77
2023-02-25T05:14:28.284Z,1.10
2023-02-25T05:20:31.118Z,2.45
2023-02-25T05:26:33.198Z,0.93
2023-02-25T05:32:35.626Z,1.27
2023-02-25T05:38:39.090Z,1.05
2023-02-25T05:44:41.658Z,0.90
2023-02-25T05:50:43.947Z,1.10
2023-02-25T05:56:46.421Z,1.85
2023-02-25T06:02:48.686Z,1.20
2023-02-25T06:08:51.614Z,1.77
2023-02-25T06:14:53.780Z,1.63
2023-02-25T06:20:55.829Z,1.80
2023-02-25T06:26:58.420Z,1.50
2023-02-25T06:33:00.580Z,1.70
2023-02-25T06:39:02.982Z,1.60
2023-02-25T06:45:06.599Z,1.80
2023-02-25T06:51:09.814Z,1.58
2023-02-25T06:57:13.852Z,1.88
2023-02-25T07:03:18.099Z,2.73
2023-02-25T07:09:20.884Z,1.67
2023-02-25T07:15:22.716Z,2.05
2023-02-25T07:21:29.749Z,1.40
2023-02-25T07:27:31.635Z,1.50
2023-02-25T07:33:34.331Z,0.90
2023-02-25T07:39:37.017Z,1.45
2023-02-25T07:45:39.082Z,0.88
2023-02-25T07:51:40.950Z,1.00
2023-02-25T07:57:42.888Z,0.90
2023-02-25T08:03:48.531Z,0.70
2023-02-25T08:09:50.525Z,0.88
2023-02-25T08:15:52.700Z,0.90
2023-02-25T08:21:54.981Z,1.10
2023-02-25T08:27:58.455Z,0.70
2023-02-25T08:34:00.446Z,0.95
2023-02-25T08:40:02.525Z,0.95
2023-02-25T08:46:06.538Z,0.88
2023-02-25T08:52:12.205Z,0.80
2023-02-25T08:58:14.009Z,0.65
2023-02-25T09:04:18.978Z,1.30
2023-02-25T09:10:23.559Z,1.98
2023-02-25T09:16:28.973Z,1.48
2023-02-25T09:22:33.131Z,1.50
2023-02-25T09:28:35.423Z,1.98
2023-02-25T09:34:37.620Z,0.95
2023-02-25T09:40:45.271Z,0.90
2023-02-25T09:47:14.541Z,0.90
2023-02-25T09:53:23.146Z,0.88
2023-02-25T09:59:28.752Z,1.15
2023-02-25T10:05:45.777Z,1.45
2023-02-25T10:11:56.610Z,0.77
2023-02-25T10:18:23.694Z,0.70
2023-02-25T10:24:38.945Z,0.93
2023-02-25T10:31:28.215Z,0.82
2023-02-25T10:37:35.834Z,1.42
2023-02-25T10:43:38.408Z,1.13
2023-02-25T10:49:40.305Z,0.60
2023-02-25T10:55:53.364Z,0.93
2023-02-25T11:01:56.794Z,0.70
2023-02-25T11:07:58.790Z,0.85
2023-02-25T11:14:05.831Z,0.65
2023-02-25T11:20:24.164Z,0.70
2023-02-25T11:26:34.171Z,0.60
2023-02-25T11:32:43.272Z,0.50
2023-02-25T11:38:45.808Z,0.50
2023-02-25T11:44:48.027Z,0.70
2023-02-25T11:51:11.204Z,0.75
2023-02-25T11:57:38.300Z,0.50
2023-02-25T12:04:15.527Z,0.70
2023-02-25T12:10:36.355Z,0.80
2023-02-25T12:16:58.841Z,0.57
2023-02-25T12:23:12.508Z,0.73
2023-02-25T12:29:52.113Z,0.77
2023-02-25T12:36:13.240Z,0.43
2023-02-25T12:42:28.977Z,0.43
2023-02-25T12:49:04.277Z,0.32
2023-02-25T12:55:25.368Z,0.70
2023-02-25T13:01:34.804Z,0.52
2023-02-25T13:07:57.520Z,0.40
2023-02-25T13:14:15.706Z,0.68
2023-02-25T13:20:45.507Z,0.60
2023-02-25T13:27:14.625Z,0.50
2023-02-25T13:33:46.467Z,0.60
2023-02-25T13:40:27.101Z,0.45
2023-02-25T13:46:53.986Z,0.88
2023-02-25T13:53:22.521Z,0.70
2023-02-25T13:59:42.966Z,0.70
2023-02-25T14:06:23.140Z,0.60
2023-02-25T14:12:51.289Z,0.77
2023-02-25T14:19:19.943Z,0.60
2023-02-25T14:25:51.145Z,0.43
2023-02-25T14:32:28.440Z,0.75
2023-02-25T14:38:57.333Z,0.35
2023-02-25T14:45:02.446Z,0.85
2023-02-25T14:51:22.586Z,0.70
2023-02-25T14:57:42.507Z,0.88
2023-02-25T15:04:02.549Z,0.70
2023-02-25T15:10:30.453Z,1.05
2023-02-25T15:17:00.288Z,0.65
2023-02-25T15:23:16.727Z,0.93
2023-02-25T15:29:44.550Z,0.95
2023-02-25T15:35:49.330Z,0.75
2023-02-25T15:42:03.079Z,0.88
2023-02-25T15:48:08.015Z,0.95
2023-02-25T15:54:11.766Z,1.00
2023-02-25T16:00:47.551Z,1.03
2023-02-25T16:06:50.152Z,0.90
2023-02-25T16:12:55.791Z,0.88
2023-02-25T16:18:58.435Z,0.90
2023-02-25T16:25:01.971Z,1.15
2023-02-25T16:31:21.320Z,1.90
2023-02-25T16:37:34.653Z,1.58
2023-02-25T16:43:39.334Z,0.80
2023-02-25T16:55:48.720Z,1.10
2023-02-25T17:01:59.128Z,1.33
2023-02-25T17:08:05.527Z,2.13
2023-02-25T17:14:07.416Z,2.25
2023-02-25T17:20:17.435Z,1.20
2023-02-25T17:26:21.362Z,1.50
2023-02-25T17:32:29.506Z,1.47
2023-02-25T17:38:31.699Z,1.27
2023-02-25T17:44:39.546Z,1.40
2023-02-25T17:50:41.821Z,1.30
2023-02-25T17:56:44.349Z,2.85
2023-02-25T18:03:06.611Z,1.65
2023-02-25T18:09:37.207Z,1.92
2023-02-25T18:15:39.361Z,2.40
2023-02-25T18:21:43.019Z,2.53
2023-02-25T18:27:45.476Z,1.57
2023-02-25T18:33:47.748Z,2.47
2023-02-25T18:39:51.307Z,1.85
2023-02-25T18:45:53.084Z,1.60
2023-02-25T18:51:55.007Z,1.85
2023-02-25T18:57:57.925Z,1.40
2023-02-25T19:04:00.352Z,1.52
2023-02-25T19:10:02.579Z,1.23
2023-02-25T19:16:04.977Z,1.92
2023-02-25T19:22:06.835Z,1.45
2023-02-25T19:28:09.040Z,1.38
2023-02-25T19:34:10.807Z,1.10
2023-02-25T19:40:15.376Z,1.85
2023-02-25T19:46:17.914Z,1.05
2023-02-25T19:52:19.898Z,1.10
2023-02-25T19:58:21.785Z,0.98
2023-02-25T20:04:23.579Z,0.90
2023-02-25T20:10:25.552Z,0.95
2023-02-25T20:16:27.607Z,0.98
2023-02-25T20:22:29.461Z,1.35
2023-02-25T20:28:31.814Z,1.40
2023-02-25T20:34:33.827Z,1.52
2023-02-25T20:40:35.755Z,2.10
2023-02-25T20:46:38.244Z,4.60
2023-02-25T20:52:40.181Z,4.72
2023-02-25T20:58:42.665Z,6.95
2023-02-25T21:04:44.682Z,3.75
2023-02-25T21:10:46.791Z,2.30
2023-02-25T21:16:54.295Z,1.90
2023-02-25T21:22:56.354Z,2.20
2023-02-25T21:28:58.358Z,1.63
2023-02-25T21:35:00.183Z,1.35
2023-02-25T21:41:06.576Z,1.33
2023-02-25T21:47:08.495Z,1.90
2023-02-25T21:53:10.338Z,1.55
2023-02-25T21:59:12.172Z,1.35
2023-02-25T22:05:14.073Z,1.40
2023-02-25T22:11:21.920Z,1.48
2023-02-25T22:17:23.851Z,1.23
2023-02-25T22:23:25.699Z,1.58
2023-02-25T22:29:27.538Z,1.50
2023-02-25T22:35:29.464Z,1.52
2023-02-25T22:41:31.354Z,1.45
2023-02-25T22:47:33.178Z,1.50
2023-02-25T22:53:35.596Z,1.60
2023-02-25T22:59:37.434Z,1.58
2023-02-25T23:05:39.222Z,1.48
2023-02-25T23:11:42.903Z,1.60
2023-02-25T23:17:46.042Z,1.60
2023-02-25T23:23:53.485Z,1.55
2023-02-25T23:29:55.423Z,1.48
2023-02-25T23:35:58.658Z,1.63
2023-02-25T23:42:00.768Z,1.63
2023-02-25T23:48:02.919Z,1.63
2023-02-25T23:54:06.274Z,1.45
